Time;durP1;ratioP1;P1;durP2;ratioP2;P2;SDS_P1;SDS_P2;PMS_P1;PMS_P2;Temp;Humidity;BMP_temperature;BMP_pressure;BME280_temperature;BME280_humidity;BME280_pressure;Samples;Min_cycle;Max_cycle;Signal;HPM_P1;HPM_P2
2024/02/13 00:00:25;;;;;;;1.00;0.90;;;;;;;7.95;100.00;99438.53;4873962;29;20120;-75
2024/02/13 00:02:51;;;;;;;0.65;0.65;;;;;;;8.36;100.00;99521.06;4874691;29;20040;-73
2024/02/13 00:05:16;;;;;;;0.95;0.95;;;;;;;8.52;100.00;99532.31;4873681;29;20058;-75
2024/02/13 00:07:44;;;;;;;0.30;0.30;;;;;;;7.87;100.00;99443.78;4869489;29;20061;-75
2024/02/13 00:10:11;;;;;;;0.57;0.57;;;;;;;8.16;100.00;99480.19;4870446;29;20053;-74
2024/02/13 00:12:38;;;;;;;0.20;0.20;;;;;;;8.42;100.00;99534.97;4868603;29;20073;-75
2024/02/13 00:15:04;;;;;;;0.40;0.40;;;;;;;7.76;100.00;99438.59;4869880;29;20524;-75
2024/02/13 00:17:31;;;;;;;3.05;2.15;;;;;;;7.81;100.00;99444.66;4869424;29;20061;-74
2024/02/13 00:19:59;;;;;;;0.63;0.63;;;;;;;8.15;100.00;99511.59;4858074;29;20061;-74
2024/02/13 00:22:25;;;;;;;2.42;2.22;;;;;;;8.42;100.00;99545.44;4870029;29;20045;-73
2024/02/13 00:24:51;;;;;;;10.80;2.60;;;;;;;8.45;100.00;99548.06;4871036;29;20081;-73
2024/02/13 00:27:19;;;;;;;0.30;0.30;;;;;;;8.34;100.00;99531.53;4850114;29;20040;-74
2024/02/13 00:29:45;;;;;;;1.98;1.48;;;;;;;7.86;100.00;99456.84;4871798;29;20028;-73
2024/02/13 00:32:11;;;;;;;0.30;0.30;;;;;;;7.64;100.00;99417.78;4870387;29;20060;-72
2024/02/13 00:34:37;;;;;;;1.42;1.33;;;;;;;8.19;100.00;99518.50;4873269;29;20045;-73
2024/02/13 00:37:03;;;;;;;0.65;0.65;;;;;;;7.59;100.00;99424.78;4871616;29;20430;-73
2024/02/13 00:39:29;;;;;;;0.50;0.50;;;;;;;7.77;100.00;99440.38;4869735;29;20049;-73
2024/02/13 00:41:57;;;;;;;2.50;2.30;;;;;;;7.65;100.00;99463.03;4869426;29;20036;-73
2024/02/13 00:44:23;;;;;;;0.20;0.20;;;;;;;7.54;100.00;99470.91;4873089;29;20057;-73
2024/02/13 00:46:50;;;;;;;4.00;3.80;;;;;;;7.54;100.00;99440.44;4861394;29;20060;-73
2024/02/13 00:49:16;;;;;;;0.40;0.40;;;;;;;8.24;100.00;99558.56;4869501;29;20057;-72
2024/02/13 00:51:42;;;;;;;0.30;0.30;;;;;;;7.97;100.00;99499.47;4873587;29;20049;-73
2024/02/13 00:54:13;;;;;;;0.40;0.40;;;;;;;7.66;100.00;99460.41;4874327;29;20047;-73
2024/02/13 00:56:40;;;;;;;0.85;0.85;;;;;;;7.70;100.00;99463.88;4855756;29;20049;-75
2024/02/13 00:59:07;;;;;;;0.30;0.30;;;;;;;7.50;100.00;99441.31;4867869;29;20061;-73
2024/02/13 01:01:35;;;;;;;0.20;0.20;;;;;;;8.23;100.00;99549.00;4872810;29;20045;-73
2024/02/13 01:04:04;;;;;;;0.25;0.25;;;;;;;7.61;100.00;99441.28;4872388;29;20470;-73
2024/02/13 01:06:30;;;;;;;3.33;3.03;;;;;;;7.94;100.00;99495.13;4871084;29;20048;-74
2024/02/13 01:08:56;;;;;;;4.07;3.63;;;;;;;8.15;100.00;99532.50;4868495;29;20029;-73
2024/02/13 01:11:22;;;;;;;2.08;1.85;;;;;;;7.51;100.00;99430.00;4872343;29;20048;-74
2024/02/13 01:13:48;;;;;;;0.28;0.28;;;;;;;7.42;100.00;99442.22;4870126;29;20037;-74
2024/02/13 01:16:14;;;;;;;0.30;0.30;;;;;;;7.76;100.00;99489.97;4867415;29;20116;-74
2024/02/13 01:18:41;;;;;;;0.57;0.57;;;;;;;8.09;100.00;99540.34;4868894;29;20059;-73
2024/02/13 01:21:11;;;;;;;0.85;0.85;;;;;;;8.05;100.00;99547.31;4867165;29;20421;-74
2024/02/13 01:23:38;;;;;;;2.20;2.00;;;;;;;7.61;100.00;99444.78;4870764;29;20049;-73
2024/02/13 01:26:04;;;;;;;2.17;1.25;;;;;;;7.37;100.00;99440.50;4868544;29;20140;-73
2024/02/13 01:28:29;;;;;;;0.28;0.28;;;;;;;7.46;100.00;99468.28;4870390;29;20147;-73
2024/02/13 01:30:56;;;;;;;2.22;2.03;;;;;;;7.38;100.00;99463.09;4872199;29;20073;-75
2024/02/13 01:33:24;;;;;;;0.50;0.50;;;;;;;8.01;100.00;99558.66;4869795;29;20028;-74
2024/02/13 01:35:50;;;;;;;0.75;0.75;;;;;;;8.01;100.00;99564.75;4871470;29;20064;-74
2024/02/13 01:38:16;;;;;;;0.50;0.50;;;;;;;7.92;100.00;99549.13;4864951;29;20081;-73
2024/02/13 01:40:41;;;;;;;7.82;3.65;;;;;;;7.43;100.00;99460.47;4867576;29;20057;-74
2024/02/13 01:43:09;;;;;;;0.55;0.55;;;;;;;7.99;100.00;99536.91;4853253;29;20053;-75
2024/02/13 01:45:34;;;;;;;0.40;0.40;;;;;;;7.81;100.00;99562.19;4870843;29;20076;-74
2024/02/13 01:48:04;;;;;;;0.40;0.40;;;;;;;7.45;100.00;99476.16;4869899;29;20790;-74
2024/02/13 01:50:30;;;;;;;3.53;3.22;;;;;;;7.79;100.00;99544.78;4870725;29;20053;-74
2024/02/13 01:52:56;;;;;;;3.15;2.78;;;;;;;7.36;100.00;99458.75;4868007;29;20041;-76
2024/02/13 01:55:28;;;;;;;0.40;0.40;;;;;;;7.37;100.00;99466.59;4866704;29;20069;-73
2024/02/13 01:57:57;;;;;;;1.33;1.33;;;;;;;7.27;100.00;99437.91;4861929;29;20057;-73
2024/02/13 02:00:24;;;;;;;3.08;2.70;;;;;;;7.74;100.00;99544.81;4866715;29;20048;-76
2024/02/13 02:02:50;;;;;;;0.30;0.30;;;;;;;7.24;100.00;99467.50;4867829;29;20169;-73
2024/02/13 02:05:16;;;;;;;4.13;3.72;;;;;;;7.71;100.00;99539.59;4865613;29;20144;-73
2024/02/13 02:07:42;;;;;;;0.35;0.35;;;;;;;7.72;100.00;99537.84;4869638;29;20100;-73
2024/02/13 02:10:09;;;;;;;3.28;2.63;;;;;;;7.44;100.00;99490.06;4871166;29;20053;-73
2024/02/13 02:12:35;;;;;;;0.30;0.30;;;;;;;7.15;100.00;99451.84;4867239;29;20052;-73
2024/02/13 02:15:02;;;;;;;0.20;0.20;;;;;;;7.17;100.00;99473.59;4869865;29;20112;-73
2024/02/13 02:17:27;;;;;;;3.63;3.33;;;;;;;7.17;100.00;99444.91;4868803;29;20064;-73
2024/02/13 02:19:53;;;;;;;0.30;0.30;;;;;;;7.69;100.00;99541.34;4871099;29;20041;-74
2024/02/13 02:22:18;;;;;;;0.30;0.30;;;;;;;6.96;100.00;99444.03;4869436;29;20644;-73
2024/02/13 02:24:44;;;;;;;0.93;0.93;;;;;;;7.53;100.00;99529.19;4870982;29;20061;-74
2024/02/13 02:27:09;;;;;;;0.60;0.60;;;;;;;6.98;100.00;99444.06;4870674;29;20041;-73
2024/02/13 02:29:37;;;;;;;0.30;0.30;;;;;;;6.03;100.00;99288.59;4871162;29;20756;-73
2024/02/13 02:32:04;;;;;;;0.70;0.70;;;;;;;7.30;100.00;99529.22;4867646;29;20045;-73
2024/02/13 02:34:31;;;;;;;1.73;1.63;;;;;;;7.47;100.00;99547.47;4854606;29;20077;-73
2024/02/13 02:36:57;;;;;;;0.25;0.25;;;;;;;7.37;100.00;99544.00;4869136;29;20065;-74
2024/02/13 02:39:22;;;;;;;1.48;1.45;;;;;;;6.90;100.00;99451.88;4867208;29;20398;-73
2024/02/13 02:41:48;;;;;;;0.57;0.57;;;;;;;6.91;100.00;99440.59;4867725;29;20078;-72
2024/02/13 02:44:14;;;;;;;4.88;4.38;;;;;;;7.41;100.00;99543.13;4870441;29;20084;-75
2024/02/13 02:46:40;;;;;;;0.40;0.40;;;;;;;7.39;100.00;99534.44;4864362;29;20137;-73
2024/02/13 02:49:05;;;;;;;18.20;16.85;;;;;;;7.44;100.00;99545.72;4867618;29;20462;-74
2024/02/13 02:51:32;;;;;;;0.75;0.75;;;;;;;6.94;100.00;99476.22;4861525;29;20053;-75
2024/02/13 02:53:58;;;;;;;0.30;0.30;;;;;;;6.86;100.00;99450.16;4873319;29;20077;-74
2024/02/13 02:56:24;;;;;;;0.30;0.30;;;;;;;6.70;100.00;99457.09;4872431;29;20057;-74
2024/02/13 02:58:55;;;;;;;0.50;0.50;;;;;;;7.33;100.00;99555.34;4863852;29;20052;-74
2024/02/13 03:01:22;;;;;;;2.47;1.85;;;;;;;7.23;100.00;99528.34;4866935;29;20053;-74
2024/02/13 03:03:50;;;;;;;1.42;1.38;;;;;;;7.49;100.00;99551.84;4867694;29;20045;-74
2024/02/13 03:06:16;;;;;;;1.00;1.00;;;;;;;6.62;100.00;99456.22;4866183;29;20140;-77
2024/02/13 03:08:42;;;;;;;0.30;0.30;;;;;;;7.04;100.00;99564.00;4868232;29;20033;-75
2024/02/13 03:11:08;;;;;;;0.60;0.60;;;;;;;6.92;100.00;99527.50;4869461;29;20072;-73
2024/02/13 03:13:34;;;;;;;1.30;0.85;;;;;;;6.66;100.00;99478.81;4872224;29;20084;-76
2024/02/13 03:16:00;;;;;;;0.30;0.30;;;;;;;6.70;100.00;99484.91;4871806;29;20501;-74
2024/02/13 03:18:26;;;;;;;5.55;2.65;;;;;;;7.01;100.00;99526.63;4869654;29;20113;-74
2024/02/13 03:20:52;;;;;;;0.40;0.30;;;;;;;7.08;100.00;99572.72;4876206;29;20120;-75
2024/02/13 03:23:18;;;;;;;3.13;2.97;;;;;;;7.14;100.00;99588.34;4871448;29;20145;-75
2024/02/13 03:25:43;;;;;;;5.25;4.68;;;;;;;7.18;100.00;99590.09;4874015;29;20073;-75
2024/02/13 03:28:09;;;;;;;4.40;4.10;;;;;;;7.06;100.00;99588.34;4870965;29;20067;-74
2024/02/13 03:30:34;;;;;;;0.30;0.30;;;;;;;7.13;100.00;99571.84;4874976;29;20049;-74
2024/02/13 03:33:00;;;;;;;1.85;0.68;;;;;;;6.74;100.00;99510.09;4875196;29;20082;-75
2024/02/13 03:35:26;;;;;;;3.50;3.22;;;;;;;7.26;100.00;99588.38;4873264;29;20085;-73
2024/02/13 03:37:52;;;;;;;0.52;0.50;;;;;;;6.76;100.00;99505.75;4873033;29;20076;-73
2024/02/13 03:40:17;;;;;;;0.25;0.25;;;;;;;7.03;100.00;99554.47;4871382;29;20551;-73
2024/02/13 03:42:46;;;;;;;0.38;0.38;;;;;;;6.61;100.00;99492.72;4870439;29;20067;-75
2024/02/13 03:45:11;;;;;;;0.80;0.70;;;;;;;7.13;100.00;99587.50;4871019;29;20040;-75
2024/02/13 03:47:37;;;;;;;0.98;0.98;;;;;;;7.11;100.00;99596.19;4871656;29;20090;-73
2024/02/13 03:50:03;;;;;;;0.40;0.40;;;;;;;7.19;100.00;99600.56;4873090;29;20055;-74
2024/02/13 03:52:29;;;;;;;0.50;0.50;;;;;;;6.71;100.00;99515.31;4871535;29;20073;-74
2024/02/13 03:54:55;;;;;;;0.85;0.85;;;;;;;7.10;100.00;99584.03;4870850;29;20641;-74
2024/02/13 03:57:20;;;;;;;0.30;0.30;;;;;;;7.01;100.00;99574.44;4871653;29;20153;-74
2024/02/13 03:59:46;;;;;;;1.95;1.85;;;;;;;7.11;100.00;99598.81;4871898;29;20425;-74
2024/02/13 04:02:12;;;;;;;2.17;2.08;;;;;;;6.47;100.00;99501.38;4871028;29;20180;-74
2024/02/13 04:04:37;;;;;;;0.30;0.30;;;;;;;7.03;100.00;99604.03;4870184;29;20055;-74
2024/02/13 04:07:04;;;;;;;0.30;0.30;;;;;;;6.95;100.00;99588.38;4868859;29;20053;-73
2024/02/13 04:09:31;;;;;;;3.53;1.95;;;;;;;6.27;100.00;99497.84;4873098;29;20216;-74
2024/02/13 04:11:56;;;;;;;2.67;2.58;;;;;;;6.96;100.00;99594.44;4875191;29;20415;-74
2024/02/13 04:14:23;;;;;;;1.67;1.58;;;;;;;6.97;100.00;99604.00;4869006;29;20060;-75
2024/02/13 04:16:49;;;;;;;1.92;0.82;;;;;;;6.78;100.00;99571.81;4869369;29;20052;-74
2024/02/13 04:19:15;;;;;;;1.50;1.40;;;;;;;6.79;100.00;99620.50;4869453;29;20052;-75
2024/02/13 04:21:41;;;;;;;1.65;1.55;;;;;;;6.66;100.00;99588.28;4871107;29;20053;-74
2024/02/13 04:24:07;;;;;;;0.45;0.45;;;;;;;6.49;100.00;99584.78;4872394;29;20409;-74
2024/02/13 04:26:33;;;;;;;0.20;0.20;;;;;;;6.47;100.00;99612.56;4867694;29;20076;-74
2024/02/13 04:28:59;;;;;;;1.60;1.50;;;;;;;6.01;100.00;99526.44;4871189;29;20076;-75
2024/02/13 04:31:25;;;;;;;0.75;0.75;;;;;;;6.72;100.00;99621.34;4866239;29;20045;-74
2024/02/13 04:33:52;;;;;;;0.55;0.55;;;;;;;6.42;100.00;99602.13;4867008;29;20097;-74
2024/02/13 04:36:17;;;;;;;2.10;1.90;;;;;;;6.38;100.00;99620.34;4865637;29;20648;-74
2024/02/13 04:38:43;;;;;;;0.50;0.50;;;;;;;6.33;100.00;99591.69;4869747;29;20041;-75
2024/02/13 04:41:09;;;;;;;21.35;9.48;;;;;;;6.39;100.00;99609.06;4868779;29;20053;-73
2024/02/13 04:43:35;;;;;;;1.05;0.98;;;;;;;6.47;100.00;99639.50;4870997;29;20163;-75
2024/02/13 04:46:02;;;;;;;1.05;1.05;;;;;;;6.45;100.00;99616.91;4869850;29;20141;-75
2024/02/13 04:48:30;;;;;;;1.00;0.82;;;;;;;6.31;100.00;99594.25;4870170;29;20154;-74
2024/02/13 04:50:56;;;;;;;1.02;1.02;;;;;;;6.36;100.00;99585.59;4869718;29;20036;-76
2024/02/13 04:53:22;;;;;;;0.63;0.63;;;;;;;5.89;100.00;99522.88;4868320;29;20857;-73
2024/02/13 04:55:48;;;;;;;0.25;0.25;;;;;;;5.98;100.00;99548.13;4866804;29;20045;-75
2024/02/13 04:58:17;;;;;;;7.53;6.95;;;;;;;5.80;100.00;99516.75;4865972;29;20064;-75
2024/02/13 05:01:01;;;;;;;0.40;0.40;;;;;;;5.93;100.00;99542.84;4869329;29;20505;-73
2024/02/13 05:03:41;;;;;;;1.67;1.65;;;;;;;6.45;100.00;99633.41;4870420;29;20037;-74
2024/02/13 05:08:55;;;;;;;0.93;0.93;;;;;;;6.33;100.00;99639.44;4867487;29;20103;-74
2024/02/13 05:11:25;;;;;;;0.30;0.30;;;;;;;5.79;100.00;99528.91;4873322;29;20117;-74
2024/02/13 05:13:52;;;;;;;1.75;1.67;;;;;;;6.10;100.00;99617.63;4872988;29;20172;-76
2024/02/13 05:16:18;;;;;;;0.40;0.40;;;;;;;5.66;100.00;99563.53;4877441;29;20131;-74
2024/02/13 05:18:45;;;;;;;5.47;5.13;;;;;;;5.75;100.00;99583.53;4876744;29;20060;-75
2024/02/13 05:21:10;;;;;;;0.57;0.57;;;;;;;6.07;100.00;99641.03;4871467;29;20037;-73
2024/02/13 05:23:38;;;;;;;0.30;0.30;;;;;;;6.01;100.00;99639.25;4871856;29;20072;-74
2024/02/13 05:26:06;;;;;;;0.30;0.30;;;;;;;6.08;100.00;99661.88;4871783;29;20636;-73
2024/02/13 05:28:32;;;;;;;2.55;2.40;;;;;;;6.23;100.00;99663.72;4870106;29;20049;-74
2024/02/13 05:30:57;;;;;;;0.30;0.30;;;;;;;5.92;100.00;99644.38;4871118;29;20065;-74
2024/02/13 05:33:23;;;;;;;2.22;1.58;;;;;;;5.97;100.00;99641.84;4868211;29;20182;-74
2024/02/13 05:35:49;;;;;;;0.65;0.65;;;;;;;6.01;100.00;99644.47;4872857;29;20517;-75
2024/02/13 05:38:14;;;;;;;1.88;1.77;;;;;;;5.36;100.00;99533.88;4869087;29;20093;-75
2024/02/13 05:40:42;;;;;;;0.82;0.82;;;;;;;6.03;100.00;99647.09;4871311;29;20516;-75
2024/02/13 05:43:08;;;;;;;0.70;0.70;;;;;;;5.62;100.00;99559.16;4869427;29;20045;-75
2024/02/13 05:45:34;;;;;;;17.73;13.45;;;;;;;5.51;100.00;99535.69;4870861;29;20394;-73
2024/02/13 05:48:01;;;;;;;3.47;3.25;;;;;;;6.24;100.00;99654.16;4872170;29;20033;-74
2024/02/13 05:50:26;;;;;;;1.17;1.17;;;;;;;5.65;100.00;99544.44;4868605;29;20132;-75
2024/02/13 05:52:53;;;;;;;4.40;3.90;;;;;;;6.25;100.00;99655.88;4864952;29;20489;-74
2024/02/13 05:55:19;;;;;;;1.02;1.02;;;;;;;6.12;100.00;99619.34;4870730;29;20056;-74
2024/02/13 05:57:44;;;;;;;0.50;0.50;;;;;;;6.29;100.00;99655.03;4862762;29;20052;-73
2024/02/13 06:00:14;;;;;;;0.30;0.30;;;;;;;5.65;100.00;99540.97;4867987;29;20128;-74
2024/02/13 06:02:43;;;;;;;14.93;13.85;;;;;;;6.31;100.00;99658.53;4866277;29;20485;-73
2024/02/13 06:05:14;;;;;;;0.40;0.40;;;;;;;5.71;100.00;99565.31;4866922;29;20049;-75
2024/02/13 06:07:41;;;;;;;0.57;0.57;;;;;;;6.42;100.00;99663.81;4867641;29;20064;-75
2024/02/13 06:10:07;;;;;;;1.45;0.65;;;;;;;6.30;100.00;99664.63;4865409;29;20146;-74
2024/02/13 06:12:32;;;;;;;0.65;0.65;;;;;;;6.18;100.00;99651.50;4850130;29;20494;-73
2024/02/13 06:14:59;;;;;;;0.38;0.38;;;;;;;6.32;100.00;99657.66;4866029;29;20040;-74
2024/02/13 06:17:25;;;;;;;3.15;3.05;;;;;;;6.28;100.00;99655.91;4868626;29;20061;-75
2024/02/13 06:19:51;;;;;;;0.47;0.47;;;;;;;6.34;100.00;99655.94;4869077;29;21301;-76
2024/02/13 06:22:17;;;;;;;1.15;1.10;;;;;;;6.43;100.00;99655.97;4865318;29;20057;-75
2024/02/13 06:24:43;;;;;;;0.30;0.30;;;;;;;6.46;100.00;99652.50;4866289;29;20067;-75
2024/02/13 06:27:09;;;;;;;1.15;1.10;;;;;;;6.42;100.00;99632.53;4862227;29;20041;-74
2024/02/13 06:29:34;;;;;;;0.55;0.55;;;;;;;6.46;100.00;99642.97;4862469;29;20043;-74
2024/02/13 06:32:00;;;;;;;0.30;0.30;;;;;;;5.95;100.00;99542.91;4866759;29;20060;-75
2024/02/13 06:34:26;;;;;;;10.43;5.93;;;;;;;5.62;100.00;99530.53;4868298;29;20045;-77
2024/02/13 06:36:51;;;;;;;0.40;0.40;;;;;;;5.74;100.00;99537.56;4870544;29;20541;-77
2024/02/13 06:39:21;;;;;;;0.30;0.30;;;;;;;6.45;100.00;99635.16;4870017;29;20933;-75
2024/02/13 06:41:46;;;;;;;0.40;0.40;;;;;;;6.70;100.00;99656.97;4868895;29;20059;-79
2024/02/13 06:44:12;;;;;;;2.63;2.53;;;;;;;6.52;100.00;99636.91;4868555;29;20140;-80
2024/02/13 06:46:38;;;;;;;10.32;3.60;;;;;;;6.31;100.00;99602.06;4871928;29;20064;-75
2024/02/13 06:49:07;;;;;;;2.20;2.05;;;;;;;6.25;100.00;99582.94;4878914;29;20104;-76
2024/02/13 06:51:33;;;;;;;0.80;0.80;;;;;;;6.71;100.00;99661.31;4871505;29;20182;-77
2024/02/13 06:54:01;;;;;;;0.20;0.20;;;;;;;6.42;100.00;99596.06;4870488;29;20665;-73
2024/02/13 06:56:27;;;;;;;0.30;0.30;;;;;;;6.72;100.00;99639.59;4873029;29;20124;-76
2024/02/13 06:58:52;;;;;;;0.68;0.68;;;;;;;6.25;100.00;99562.09;4868921;29;20053;-74
2024/02/13 07:01:21;;;;;;;0.30;0.30;;;;;;;6.75;100.00;99660.47;4861048;29;20123;-76
2024/02/13 07:03:48;;;;;;;3.25;3.13;;;;;;;6.65;100.00;99630.00;4871291;29;20105;-75
2024/02/13 07:06:17;;;;;;;3.25;3.13;;;;;;;6.54;100.00;99630.84;4873974;29;20562;-76
2024/02/13 07:08:43;;;;;;;0.75;0.75;;;;;;;6.74;100.00;99651.78;4875544;29;20029;-75
2024/02/13 07:11:10;;;;;;;0.43;0.43;;;;;;;6.95;100.00;99664.00;4874637;29;20049;-74
2024/02/13 07:13:37;;;;;;;0.40;0.40;;;;;;;6.65;100.00;99643.03;4876548;29;20072;-74
2024/02/13 07:16:06;;;;;;;0.50;0.50;;;;;;;6.06;100.00;99528.19;4862914;29;20076;-73
2024/02/13 07:18:33;;;;;;;4.07;1.52;;;;;;;6.88;100.00;99651.81;4873857;29;20045;-76
2024/02/13 07:20:59;;;;;;;0.43;0.43;;;;;;;6.64;100.00;99631.72;4875982;29;20048;-75
2024/02/13 07:23:25;;;;;;;0.38;0.38;;;;;;;6.80;100.00;99626.56;4874226;29;20052;-74
2024/02/13 07:25:50;;;;;;;0.73;0.73;;;;;;;7.00;100.00;99660.50;4874903;29;20037;-75
2024/02/13 07:28:17;;;;;;;0.30;0.30;;;;;;;6.61;100.00;99597.84;4874658;29;20111;-74
2024/02/13 07:30:42;;;;;;;0.50;0.50;;;;;;;6.66;100.00;99592.66;4874941;29;20125;-75
2024/02/13 07:33:08;;;;;;;1.95;1.85;;;;;;;6.39;100.00;99544.81;4874145;29;20192;-76
2024/02/13 07:35:33;;;;;;;0.30;0.30;;;;;;;6.94;100.00;99646.59;4875773;29;20028;-74
2024/02/13 07:38:01;;;;;;;0.88;0.82;;;;;;;6.96;100.00;99641.38;4871398;29;20053;-76
2024/02/13 07:40:26;;;;;;;3.30;2.85;;;;;;;6.53;100.00;99555.25;4860179;29;20061;-75
2024/02/13 07:42:52;;;;;;;2.95;2.85;;;;;;;7.03;100.00;99652.72;4857706;29;20366;-76
2024/02/13 07:45:17;;;;;;;0.50;0.50;;;;;;;6.63;100.00;99577.88;4874277;29;20521;-76
2024/02/13 07:47:43;;;;;;;0.38;0.38;;;;;;;6.51;100.00;99505.75;4875165;29;20111;-74
2024/02/13 07:50:09;;;;;;;0.40;0.40;;;;;;;7.31;100.00;99649.25;4857464;29;20063;-75
2024/02/13 07:52:36;;;;;;;0.32;0.32;;;;;;;7.18;100.00;99622.28;4873122;29;20057;-77
2024/02/13 07:55:04;;;;;;;1.35;1.15;;;;;;;7.36;100.00;99639.69;4872418;29;20438;-76
2024/02/13 07:57:30;;;;;;;0.40;0.40;;;;;;;7.30;100.00;99646.66;4872532;29;20478;-77
2024/02/13 07:59:57;;;;;;;0.50;0.40;;;;;;;7.56;100.00;99646.66;4872471;29;20096;-74
2024/02/13 08:02:23;;;;;;;0.30;0.30;;;;;;;6.58;100.00;99461.41;4874478;29;20069;-75
2024/02/13 08:04:48;;;;;;;3.33;3.20;;;;;;;7.65;100.00;99649.25;4873498;29;20117;-75
2024/02/13 08:07:14;;;;;;;1.13;1.13;;;;;;;6.90;100.00;99543.13;4856863;29;20075;-74
2024/02/13 08:09:39;;;;;;;0.50;0.50;;;;;;;7.06;100.00;99558.81;4873407;29;20059;-74
2024/02/13 08:12:06;;;;;;;0.70;0.70;;;;;;;7.66;100.00;99616.22;4872959;29;20069;-74
2024/02/13 08:14:35;;;;;;;0.82;0.82;;;;;;;7.05;100.00;99531.00;4870845;29;20132;-75
2024/02/13 08:17:02;;;;;;;3.97;3.67;;;;;;;7.98;100.00;99643.16;4869757;29;20152;-78
2024/02/13 08:19:27;;;;;;;5.03;4.78;;;;;;;7.57;100.00;99604.88;4870342;29;20068;-73
2024/02/13 08:21:53;;;;;;;0.60;0.60;;;;;;;7.53;100.00;99564.00;4871023;29;20063;-75
2024/02/13 08:24:19;;;;;;;0.65;0.65;;;;;;;7.49;100.00;99540.50;4874130;29;20377;-74
2024/02/13 08:26:44;;;;;;;0.55;0.55;;;;;;;7.75;100.00;99567.44;4871794;29;20089;-75
2024/02/13 08:29:10;;;;;;;0.88;0.88;;;;;;;8.20;100.00;99659.63;4872924;29;20056;-74
2024/02/13 08:31:36;;;;;;;4.72;4.40;;;;;;;8.26;100.00;99648.28;4873669;29;20052;-75
2024/02/13 08:34:02;;;;;;;0.45;0.45;;;;;;;8.42;100.00;99668.31;4872962;29;20420;-76
2024/02/13 08:36:29;;;;;;;0.30;0.30;;;;;;;7.98;100.00;99587.41;4874229;29;20041;-75
2024/02/13 08:38:55;;;;;;;2.58;2.05;;;;;;;8.39;100.00;99662.19;4874136;29;20486;-75
2024/02/13 08:41:23;;;;;;;0.20;0.20;;;;;;;8.56;100.00;99664.78;4873654;29;20068;-74
2024/02/13 08:43:49;;;;;;;0.43;0.43;;;;;;;8.60;100.00;99622.06;4856476;29;20132;-75
2024/02/13 08:46:19;;;;;;;0.25;0.25;;;;;;;8.68;100.00;99635.09;4873825;29;20553;-75
2024/02/13 08:48:45;;;;;;;0.30;0.30;;;;;;;8.84;100.00;99645.44;4872553;29;20135;-74
2024/02/13 08:51:13;;;;;;;0.73;0.73;;;;;;;8.91;100.00;99637.59;4873564;29;20519;-74
2024/02/13 08:53:40;;;;;;;1.15;1.10;;;;;;;8.97;100.00;99653.25;4856734;29;20058;-74
2024/02/13 08:56:06;;;;;;;1.60;1.50;;;;;;;9.13;100.00;99652.28;4869067;29;20041;-74
2024/02/13 08:58:31;;;;;;;0.40;0.40;;;;;;;9.18;100.00;99639.16;4867871;29;20060;-75
2024/02/13 09:00:57;;;;;;;1.90;1.80;;;;;;;9.27;100.00;99646.94;4872859;29;20041;-76
2024/02/13 09:03:22;;;;;;;5.78;5.45;;;;;;;8.73;100.00;99542.63;4873169;29;20409;-76
2024/02/13 09:05:48;;;;;;;0.50;0.50;;;;;;;9.35;100.00;99645.13;4872926;29;20037;-75
2024/02/13 09:08:14;;;;;;;0.60;0.60;;;;;;;9.30;100.00;99633.84;4871556;29;20100;-75
2024/02/13 09:10:41;;;;;;;0.90;0.85;;;;;;;9.57;100.00;99642.34;4869832;29;20053;-75
2024/02/13 09:13:06;;;;;;;0.63;0.60;;;;;;;9.45;100.00;99638.06;4870030;29;20055;-76
2024/02/13 09:15:32;;;;;;;0.50;0.50;;;;;;;9.51;100.00;99636.28;4873131;29;20045;-75
2024/02/13 09:17:57;;;;;;;0.45;0.45;;;;;;;8.74;100.00;99533.06;4873013;29;20461;-75
2024/02/13 09:20:23;;;;;;;1.55;1.45;;;;;;;9.71;100.00;99651.81;4872142;29;20048;-74
2024/02/13 09:22:50;;;;;;;0.98;0.98;;;;;;;9.16;100.00;99541.47;4869876;29;20057;-74
2024/02/13 09:25:16;;;;;;;0.20;0.20;;;;;;;8.76;100.00;99502.53;4870355;29;20140;-73
2024/02/13 09:27:48;;;;;;;4.80;3.67;;;;;;;9.07;100.00;99543.25;4870663;29;20080;-73
2024/02/13 09:30:19;;;;;;;2.92;2.72;;;;;;;9.49;100.00;99593.53;5072967;27;1491847;-74
2024/02/13 09:32:46;;;;;;;6.20;1.73;;;;;;;8.55;100.00;99457.34;5063571;28;20039;-75
2024/02/13 09:35:13;;;;;;;2.92;1.58;;;;;;;9.95;100.00;99636.78;5058816;28;20559;-75
2024/02/13 09:37:40;;;;;;;0.93;0.85;;;;;;;9.38;100.00;99540.38;5049878;28;20056;-76
2024/02/13 09:40:13;;;;;;;6.47;4.90;;;;;;;9.92;100.00;99631.53;5055037;28;20041;-75
2024/02/13 09:42:49;;;;;;;2.92;2.72;;;;;;;9.97;100.00;99629.72;5059859;28;20611;-76
2024/02/13 09:45:16;;;;;;;0.30;0.30;;;;;;;10.02;100.00;99601.75;5062692;28;20041;-75
2024/02/13 09:47:43;;;;;;;0.47;0.40;;;;;;;9.90;100.00;99550.34;5062821;28;20024;-74
2024/02/13 09:50:12;;;;;;;3.30;3.00;;;;;;;10.70;100.00;99621.91;5062356;28;20048;-75
2024/02/13 09:53:02;;;;;;;0.40;0.40;;;;;;;10.86;100.00;99591.94;5056029;28;20051;-74
2024/02/13 09:55:28;;;;;;;2.85;2.10;;;;;;;10.56;100.00;99585.41;5045780;28;20053;-75
2024/02/13 09:57:55;;;;;;;2.70;2.50;;;;;;;11.03;100.00;99607.47;5058279;28;20040;-75
2024/02/13 10:00:21;;;;;;;3.22;2.92;;;;;;;10.43;100.00;99510.38;5052159;28;20033;-74
2024/02/13 10:02:47;;;;;;;19.02;5.40;;;;;;;10.65;100.00;99556.41;5062182;28;20054;-74
2024/02/13 10:05:13;;;;;;;3.22;2.92;;;;;;;11.01;100.00;99554.13;5079414;28;20508;-74
2024/02/13 10:07:42;;;;;;;7.68;3.00;;;;;;;11.34;100.00;99560.59;5075766;28;20040;-75
2024/02/13 10:10:12;;;;;;;2.35;2.15;;;;;;;11.65;100.00;99594.22;5077042;28;20040;-76
2024/02/13 10:12:55;;;;;;;4.63;2.58;;;;;;;11.47;100.00;99540.25;5066632;28;20128;-75
2024/02/13 10:15:21;;;;;;;;;;;;;;;11.59;100.00;99592.56;5077694;28;20046;-75
2024/02/13 10:17:48;;;;;;;0.30;0.30;;;;;;;11.72;100.00;99585.31;5075266;28;19912;-74
2024/02/13 10:20:17;;;;;;;13.82;2.03;;;;;;;10.88;100.00;99479.09;5079106;28;20120;-76
2024/02/13 10:22:50;;;;;;;2.33;2.13;;;;;;;11.13;100.00;99487.44;5075234;28;20476;-75
2024/02/13 10:25:22;;;;;;;2.23;2.03;;;;;;;11.87;100.00;99575.41;5070212;28;20503;-73
2024/02/13 10:27:54;;;;;;;2.03;1.80;;;;;;;12.13;100.00;99575.81;5073897;28;20036;-75
2024/02/13 10:30:23;;;;;;;1.67;1.50;;;;;;;11.90;100.00;99510.53;5078316;28;20480;-76
2024/02/13 10:32:49;;;;;;;4.05;2.80;;;;;;;11.64;100.00;99466.34;5082403;28;20060;-75
2024/02/13 10:35:16;;;;;;;2.65;1.73;;;;;;;11.37;100.00;99472.97;5072160;28;20504;-75
2024/02/13 10:37:43;;;;;;;1.55;1.45;;;;;;;11.80;100.00;99473.03;5068330;28;20476;-75
2024/02/13 10:40:18;;;;;;;1.48;1.27;;;;;;;11.09;100.00;99317.72;5068059;28;20300;-75
2024/02/13 10:42:44;;;;;;;6.57;3.88;;;;;;;12.66;100.00;99559.78;5058347;28;20362;-74
2024/02/13 10:45:11;;;;;;;1.23;1.13;;;;;;;11.83;100.00;99462.44;5067528;28;20547;-75
2024/02/13 10:47:40;;;;;;;2.75;2.13;;;;;;;12.49;100.00;99478.59;5061784;28;20032;-75
2024/02/13 10:50:07;;;;;;;6.43;3.90;;;;;;;12.69;100.00;99488.69;5062917;28;20131;-76
2024/02/13 10:52:35;;;;;;;3.42;3.20;;;;;;;13.19;100.00;99567.34;5067107;28;20040;-74
2024/02/13 10:55:07;;;;;;;8.80;8.18;;;;;;;13.35;100.00;99534.50;5065192;28;20097;-74
2024/02/13 10:57:36;;;;;;;3.40;2.38;;;;;;;13.24;100.00;99563.69;5058989;28;20115;-74
2024/02/13 11:00:10;;;;;;;1.85;1.70;;;;;;;14.32;100.00;99559.06;5060947;28;20456;-77
2024/02/13 11:02:42;;;;;;;1.30;1.13;;;;;;;14.09;100.00;99529.84;5061801;28;20086;-74
2024/02/13 11:05:08;;;;;;;2.70;2.50;;;;;;;14.08;100.00;99523.72;5065602;28;20062;-74
2024/02/13 11:07:35;;;;;;;2.47;1.95;;;;;;;13.86;100.00;99465.44;5065939;28;20105;-74
2024/02/13 11:10:05;;;;;;;5.70;2.60;;;;;;;14.32;100.00;99568.78;5066895;28;20040;-75
2024/02/13 11:12:35;;;;;;;4.85;2.03;;;;;;;14.23;100.00;99561.97;5063263;28;20056;-75
2024/02/13 11:15:30;;;;;;;2.50;1.80;;;;;;;14.11;100.00;99557.06;5067653;28;20043;-74
2024/02/13 11:17:57;;;;;;;2.92;1.67;;;;;;;14.12;100.00;99448.00;5045705;28;20041;-76
2024/02/13 11:20:27;;;;;;;4.45;1.83;;;;;;;14.24;100.00;99547.03;5066996;28;20053;-75
2024/02/13 11:22:59;;;;;;;1.88;1.73;;;;;;;14.10;100.00;99540.38;5060903;28;21085;-75
2024/02/13 11:25:39;;;;;;;3.42;2.58;;;;;;;13.50;100.00;99547.25;5065485;28;20140;-74
2024/02/13 11:28:08;;;;;;;5.30;2.78;;;;;;;14.06;100.00;99543.13;5065443;28;20140;-76
2024/02/13 11:30:37;;;;;;;4.45;4.05;;;;;;;13.80;100.00;99412.88;5061971;28;20118;-76
2024/02/13 11:33:07;;;;;;;1.75;1.55;;;;;;;14.01;100.00;99465.91;5058642;28;20032;-74